createdAt,value
2023-02-19T00:00:14.205Z,100672.09
2023-02-19T00:02:48.387Z,100669.22
2023-02-19T00:05:15.119Z,100672.00
2023-02-19T00:07:44.910Z,100668.38
2023-02-19T00:10:11.644Z,100680.53
2023-02-19T00:12:38.286Z,100679.56
2023-02-19T00:15:10.073Z,100681.09
2023-02-19T00:17:36.682Z,100688.00
2023-02-19T00:20:03.501Z,100687.84
2023-02-19T00:22:30.175Z,100683.38
2023-02-19T00:24:57.041Z,100688.88
2023-02-19T00:27:23.680Z,100690.03
2023-02-19T00:29:50.369Z,100697.59
2023-02-19T00:32:17.013Z,100695.53
2023-02-19T00:34:48.438Z,100691.03
2023-02-19T00:37:15.254Z,100692.00
2023-02-19T00:39:45.003Z,100689.53
2023-02-19T00:42:11.942Z,100685.94
2023-02-19T00:44:38.644Z,100699.78
2023-02-19T00:47:05.898Z,100695.41
2023-02-19T00:49:33.666Z,100701.47
2023-02-19T00:52:00.884Z,100699.50
2023-02-19T00:54:27.832Z,100702.16
2023-02-19T00:56:54.494Z,100711.66
2023-02-19T00:59:21.159Z,100714.19
2023-02-19T01:01:49.465Z,100716.78
2023-02-19T01:04:16.467Z,100706.03
2023-02-19T01:06:43.675Z,100711.44
2023-02-19T01:09:12.596Z,100714.09
2023-02-19T01:11:43.133Z,100708.78
2023-02-19T01:14:11.827Z,100715.53
2023-02-19T01:16:38.672Z,100713.63
2023-02-19T01:19:05.434Z,100714.78
2023-02-19T01:21:32.242Z,100713.19
2023-02-19T01:23:59.615Z,100714.97
2023-02-19T01:26:35.881Z,100716.69
2023-02-19T01:29:04.762Z,100713.91
2023-02-19T01:31:31.916Z,100705.66
2023-02-19T01:34:07.875Z,100713.34
2023-02-19T01:36:37.731Z,100716.94
2023-02-19T01:39:07.235Z,100710.00
2023-02-19T01:41:43.647Z,100711.06
2023-02-19T01:44:18.164Z,100718.66
2023-02-19T01:46:48.606Z,100716.00
2023-02-19T01:49:50.116Z,100714.09
2023-02-19T01:52:38.078Z,100724.53
2023-02-19T01:55:15.769Z,100723.69
2023-02-19T01:57:52.258Z,100726.44
2023-02-19T02:00:20.017Z,100720.34
2023-02-19T02:02:54.475Z,100723.09
2023-02-19T02:05:45.566Z,100725.75
2023-02-19T02:08:38.401Z,100717.31
2023-02-19T02:11:06.107Z,100711.06
2023-02-19T02:13:54.046Z,100708.41
2023-02-19T02:16:38.817Z,100717.31
2023-02-19T02:20:19.312Z,100705.19
2023-02-19T02:23:36.847Z,100702.91
2023-02-19T02:26:38.435Z,100690.84
2023-02-19T02:30:18.530Z,100700.00
2023-02-19T02:33:21.026Z,100699.53
2023-02-19T02:36:16.875Z,100693.81
2023-02-19T02:38:50.103Z,100688.88
2023-02-19T02:41:17.230Z,100688.13
2023-02-19T02:43:43.913Z,100681.50
2023-02-19T02:46:27.740Z,100685.88
2023-02-19T02:49:05.358Z,100683.59
2023-02-19T02:51:50.802Z,100682.28
2023-02-19T02:54:50.227Z,100680.84
2023-02-19T02:57:19.380Z,100684.44
2023-02-19T02:59:49.194Z,100685.50
2023-02-19T03:02:30.025Z,100676.16
2023-02-19T03:05:43.238Z,100697.16
2023-02-19T03:08:22.517Z,100697.63
2023-02-19T03:11:32.883Z,100690.50
2023-02-19T03:14:46.507Z,100694.28
2023-02-19T03:17:52.965Z,100697.72
2023-02-19T03:20:27.038Z,100706.81
2023-02-19T03:22:57.531Z,100705.19
2023-02-19T03:25:58.417Z,100698.72
2023-02-19T03:28:52.026Z,100715.13
2023-02-19T03:31:24.625Z,100711.50
2023-02-19T03:34:01.121Z,100712.38
2023-02-19T03:36:46.324Z,100719.97
2023-02-19T03:39:22.155Z,100720.16
2023-02-19T03:42:27.044Z,100719.31
2023-02-19T03:45:11.925Z,100722.41
2023-02-19T03:48:16.799Z,100723.16
2023-02-19T03:51:24.327Z,100731.75
2023-02-19T03:54:28.815Z,100715.19
2023-02-19T03:57:06.997Z,100725.41
2023-02-19T03:59:53.900Z,100734.47
2023-02-19T04:02:41.956Z,100746.91
2023-02-19T04:05:35.014Z,100740.00
2023-02-19T04:08:17.820Z,100744.84
2023-02-19T04:10:47.306Z,100757.78
2023-02-19T04:13:43.573Z,100762.13
2023-02-19T04:16:23.982Z,100763.72
2023-02-19T04:19:00.303Z,100766.56
2023-02-19T04:21:33.684Z,100770.06
2023-02-19T04:24:21.848Z,100780.06
2023-02-19T04:26:49.366Z,100782.81
2023-02-19T04:29:16.248Z,100778.53
2023-02-19T04:31:46.992Z,100790.19
2023-02-19T04:34:13.679Z,100789.50
2023-02-19T04:36:49.333Z,100799.53
2023-02-19T04:39:18.458Z,100793.84
2023-02-19T04:41:45.271Z,100798.06
2023-02-19T04:44:12.217Z,100808.31
2023-02-19T04:46:45.028Z,100814.13
2023-02-19T04:49:11.852Z,100816.72
2023-02-19T04:51:48.180Z,100812.25
2023-02-19T04:54:14.851Z,100809.03
2023-02-19T04:56:54.557Z,100808.25
2023-02-19T04:59:24.257Z,100803.28
2023-02-19T05:01:50.926Z,100811.94
2023-02-19T05:04:17.646Z,100816.56
2023-02-19T05:06:49.222Z,100810.81
2023-02-19T05:09:16.515Z,100810.25
2023-02-19T05:11:49.203Z,100814.19
2023-02-19T05:14:24.454Z,100823.03
2023-02-19T05:16:51.111Z,100827.47
2023-02-19T05:19:17.922Z,100826.53
2023-02-19T05:21:47.770Z,100832.03
2023-02-19T05:24:15.978Z,100824.00
2023-02-19T05:26:47.895Z,100834.44
2023-02-19T05:29:16.470Z,100837.34
2023-02-19T05:31:50.505Z,100841.09
2023-02-19T05:34:17.298Z,100839.22
2023-02-19T05:36:44.248Z,100841.88
2023-02-19T05:39:12.553Z,100840.00
2023-02-19T05:41:46.885Z,100856.44
2023-02-19T05:44:14.014Z,100851.13
2023-02-19T05:46:47.144Z,100853.72
2023-02-19T05:49:14.058Z,100852.94
2023-02-19T05:51:49.669Z,100851.72
2023-02-19T05:54:16.532Z,100861.50
2023-02-19T05:56:48.619Z,100867.31
2023-02-19T05:59:22.804Z,100870.63
2023-02-19T06:01:52.923Z,100881.19
2023-02-19T06:04:27.744Z,100886.41
2023-02-19T06:06:54.469Z,100894.63
2023-02-19T06:09:23.632Z,100893.16
2023-02-19T06:11:50.420Z,100897.31
2023-02-19T06:14:17.118Z,100907.34
2023-02-19T06:16:49.856Z,100908.44
2023-02-19T06:19:16.761Z,100910.66
2023-02-19T06:21:51.076Z,100903.47
2023-02-19T06:24:17.635Z,100904.16
2023-02-19T06:26:47.347Z,100901.84
2023-02-19T06:29:14.078Z,100912.22
2023-02-19T06:31:49.641Z,100916.16
2023-02-19T06:34:16.645Z,100924.63
2023-02-19T06:36:49.279Z,100926.78
2023-02-19T06:39:16.155Z,100926.94
2023-02-19T06:41:46.124Z,100925.66
2023-02-19T06:44:15.368Z,100927.38
2023-02-19T06:46:54.793Z,100937.16
2023-02-19T06:49:22.343Z,100947.69
2023-02-19T06:51:52.237Z,100959.19
2023-02-19T06:54:19.001Z,100966.13
2023-02-19T06:56:50.791Z,100977.66
2023-02-19T06:59:17.492Z,100975.28
2023-02-19T07:01:50.360Z,100986.59
2023-02-19T07:04:17.251Z,100977.00
2023-02-19T07:06:53.053Z,100980.19
2023-02-19T07:09:20.119Z,100975.78
2023-02-19T07:11:47.261Z,100990.69
2023-02-19T07:14:17.613Z,101005.00
2023-02-19T07:16:49.079Z,100997.72
2023-02-19T07:19:16.345Z,101011.69
2023-02-19T07:21:50.534Z,101005.78
2023-02-19T07:24:29.255Z,101011.88
2023-02-19T07:26:56.113Z,101021.13
2023-02-19T07:29:22.947Z,101013.25
2023-02-19T07:31:49.882Z,101018.16
2023-02-19T07:34:17.685Z,101021.16
2023-02-19T07:36:44.478Z,101029.72
2023-02-19T07:39:17.152Z,101036.84
2023-02-19T07:41:49.912Z,101050.97
2023-02-19T07:44:16.818Z,101048.31
2023-02-19T07:46:49.635Z,101065.06
2023-02-19T07:49:16.489Z,101059.72
2023-02-19T07:51:49.308Z,101057.41
2023-02-19T07:54:18.397Z,101068.34
2023-02-19T07:56:48.464Z,101076.81
2023-02-19T07:59:21.554Z,101077.28
2023-02-19T08:02:07.660Z,101081.94
2023-02-19T08:04:34.425Z,101076.47
2023-02-19T08:07:01.342Z,101076.69
2023-02-19T08:09:34.828Z,101089.31
2023-02-19T08:12:22.486Z,101082.34
2023-02-19T08:14:58.247Z,101090.31
2023-02-19T08:17:25.321Z,101085.41
2023-02-19T08:19:52.100Z,101087.03
2023-02-19T08:22:18.774Z,101097.50
2023-02-19T08:24:48.488Z,101097.31
2023-02-19T08:27:16.505Z,101101.53
2023-02-19T09:05:08.064Z,101158.56
2023-02-19T09:32:19.060Z,101205.38
2023-02-19T09:34:54.659Z,101200.22
2023-02-19T09:37:38.014Z,101206.84
2023-02-19T09:40:05.311Z,101214.91
2023-02-19T09:42:35.322Z,101222.34
2023-02-19T09:45:05.540Z,101222.44
2023-02-19T09:47:35.434Z,101224.28
2023-02-19T09:50:22.887Z,101221.50
2023-02-19T09:53:03.835Z,101226.72
2023-02-19T09:55:50.918Z,101229.53
2023-02-19T09:58:52.768Z,101236.63
2023-02-19T10:02:01.561Z,101237.09
2023-02-19T10:04:28.881Z,101245.16
2023-02-19T10:07:03.401Z,101246.25
2023-02-19T10:09:33.799Z,101265.69
2023-02-19T10:12:27.059Z,101281.31
2023-02-19T10:15:27.894Z,101279.34
2023-02-19T10:18:16.394Z,101285.69
2023-02-19T10:20:54.667Z,101284.19
2023-02-19T10:23:23.886Z,101306.69
2023-02-19T10:25:58.830Z,101313.94
2023-02-19T10:28:50.781Z,101312.66
2023-02-19T10:31:29.447Z,101321.44
2023-02-19T10:34:04.469Z,101332.97
2023-02-19T10:36:58.960Z,101341.88
2023-02-19T10:40:08.389Z,101334.53
2023-02-19T10:42:54.541Z,101331.88
2023-02-19T10:45:42.072Z,101324.06
2023-02-19T10:48:35.855Z,101338.59
2023-02-19T10:51:29.329Z,101352.41
2023-02-19T10:54:31.495Z,101348.25
2023-02-19T10:57:43.619Z,101356.19
2023-02-19T11:00:26.790Z,101358.63
2023-02-19T11:03:18.284Z,101352.78
2023-02-19T11:06:03.601Z,101343.50
2023-02-19T11:08:46.595Z,101346.94
2023-02-19T11:11:56.967Z,101351.19
2023-02-19T11:14:27.538Z,101341.88
2023-02-19T11:17:07.424Z,101354.06
2023-02-19T11:19:59.844Z,101361.53
2023-02-19T11:22:52.960Z,101364.28
2023-02-19T11:25:29.328Z,101366.81
2023-02-19T11:28:10.435Z,101380.91
2023-02-19T11:30:47.361Z,101375.34
2023-02-19T11:33:29.621Z,101384.03
2023-02-19T11:37:13.875Z,101386.13
2023-02-19T11:39:53.590Z,101375.34
2023-02-19T11:42:55.680Z,101384.94
2023-02-19T11:45:58.108Z,101387.22
2023-02-19T11:49:19.637Z,101387.31
2023-02-19T11:52:22.998Z,101385.91
2023-02-19T11:55:13.870Z,101376.53
2023-02-19T11:57:52.538Z,101380.50
2023-02-19T12:01:11.588Z,101375.53
2023-02-19T12:04:37.632Z,101389.13
2023-02-19T12:07:55.608Z,101391.06
2023-02-19T12:14:30.213Z,101399.53
2023-02-19T12:17:29.830Z,101401.00
2023-02-19T12:20:31.993Z,101394.88
2023-02-19T12:23:20.720Z,101398.09
2023-02-19T12:26:16.936Z,101406.53
2023-02-19T12:29:06.566Z,101403.81
2023-02-19T12:32:16.653Z,101404.13
2023-02-19T12:35:12.589Z,101403.00
2023-02-19T12:38:25.722Z,101404.56
2023-02-19T12:41:48.478Z,101398.00
2023-02-19T12:45:15.461Z,101398.69
2023-02-19T12:48:07.357Z,101396.84
2023-02-19T12:50:52.213Z,101396.56
2023-02-19T12:53:58.864Z,101393.72
2023-02-19T12:56:43.301Z,101385.72
2023-02-19T12:59:36.921Z,101385.13
2023-02-19T13:02:25.472Z,101387.03
2023-02-19T13:05:47.008Z,101379.06
2023-02-19T13:09:15.986Z,101380.31
2023-02-19T13:12:11.803Z,101361.13
2023-02-19T13:15:19.394Z,101357.34
2023-02-19T13:18:01.161Z,101364.50
2023-02-19T13:20:44.278Z,101360.16
2023-02-19T13:23:50.185Z,101359.63
2023-02-19T13:27:20.371Z,101364.28
2023-02-19T13:30:33.602Z,101355.16
2023-02-19T13:33:56.998Z,101353.63
2023-02-19T13:36:29.983Z,101347.53
2023-02-19T13:38:59.794Z,101351.44
2023-02-19T13:41:56.784Z,101349.78
2023-02-19T13:44:30.397Z,101356.06
2023-02-19T13:46:57.640Z,101368.00
2023-02-19T13:49:48.515Z,101364.59
2023-02-19T13:52:31.781Z,101366.97
2023-02-19T13:55:51.870Z,101361.13
2023-02-19T13:58:36.075Z,101363.31
2023-02-19T14:01:57.558Z,101364.97
2023-02-19T14:05:07.911Z,101359.91
2023-02-19T14:07:57.128Z,101362.69
2023-02-19T14:11:04.871Z,101378.69
2023-02-19T14:14:01.185Z,101377.63
2023-02-19T14:16:50.486Z,101378.75
2023-02-19T14:19:56.856Z,101372.44
2023-02-19T14:22:58.065Z,101367.03
2023-02-19T14:25:33.898Z,101351.34
2023-02-19T14:28:31.671Z,101341.94
2023-02-19T14:31:21.462Z,101348.03
2023-02-19T14:34:27.081Z,101340.53
2023-02-19T14:37:04.801Z,101338.00
2023-02-19T14:39:49.658Z,101330.34
2023-02-19T14:42:34.734Z,101333.81
2023-02-19T14:45:08.460Z,101335.81
2023-02-19T14:47:38.100Z,101337.31
2023-02-19T14:50:34.962Z,101325.44
2023-02-19T14:53:10.148Z,101338.25
2023-02-19T14:55:47.016Z,101334.72
2023-02-19T14:58:27.436Z,101333.31
2023-02-19T15:00:56.778Z,101340.00
2023-02-19T15:03:37.630Z,101337.91
2023-02-19T15:06:20.109Z,101336.28
2023-02-19T15:09:01.100Z,101348.19
2023-02-19T15:11:32.375Z,101340.03
2023-02-19T15:14:05.534Z,101347.38
2023-02-19T15:16:36.446Z,101347.28
2023-02-19T15:19:19.252Z,101345.41
2023-02-19T15:21:50.152Z,101338.06
2023-02-19T15:24:19.517Z,101342.50
2023-02-19T15:26:58.668Z,101352.16
2023-02-19T15:29:28.687Z,101365.47
2023-02-19T15:32:03.914Z,101346.56
2023-02-19T15:34:33.017Z,101347.47
2023-02-19T15:37:23.337Z,101362.22
2023-02-19T15:40:32.373Z,101364.13
2023-02-19T15:43:01.058Z,101361.22
2023-02-19T15:45:51.152Z,101365.38
2023-02-19T15:48:31.946Z,101351.50
2023-02-19T15:51:22.888Z,101356.41
2023-02-19T15:54:04.049Z,101344.63
2023-02-19T15:56:45.222Z,101355.81
2023-02-19T15:59:43.794Z,101358.34
2023-02-19T16:02:20.152Z,101354.03
2023-02-19T16:04:48.197Z,101350.72
2023-02-19T16:07:31.818Z,101355.03
2023-02-19T16:10:24.977Z,101352.28
2023-02-19T16:13:02.625Z,101349.22
2023-02-19T16:15:33.234Z,101355.53
2023-02-19T16:18:07.452Z,101356.91
2023-02-19T16:20:36.394Z,101363.41
2023-02-19T16:23:17.302Z,101369.78
2023-02-19T16:31:25.325Z,101367.03
2023-02-19T18:02:16.563Z,101389.84
2023-02-19T18:26:21.415Z,101382.34
2023-02-19T18:28:48.066Z,101372.44
2023-02-19T18:31:17.918Z,101377.84
2023-02-19T18:33:44.820Z,101374.53
2023-02-19T18:36:12.741Z,101373.75
2023-02-19T18:38:42.401Z,101376.50
2023-02-19T18:41:20.325Z,101372.91
2023-02-19T18:43:48.113Z,101363.44
2023-02-19T18:46:15.271Z,101355.44
2023-02-19T18:48:44.946Z,101357.16
2023-02-19T18:51:12.380Z,101350.22
2023-02-19T18:53:41.919Z,101344.19
2023-02-19T18:56:09.395Z,101350.38
2023-02-19T18:58:36.190Z,101332.16
2023-02-19T19:01:06.191Z,101334.06
2023-02-19T19:03:33.076Z,101321.31
2023-02-19T19:06:00.109Z,101320.19
2023-02-19T19:08:27.476Z,101318.38
2023-02-19T19:10:56.768Z,101317.44
2023-02-19T19:13:23.686Z,101306.09
2023-02-19T19:15:51.798Z,101317.53
2023-02-19T19:18:18.574Z,101317.72
2023-02-19T19:20:45.302Z,101323.44
2023-02-19T19:23:13.843Z,101318.03
2023-02-19T19:25:43.453Z,101316.13
2023-02-19T19:28:10.052Z,101313.53
2023-02-19T19:30:36.797Z,101307.94
2023-02-19T19:33:06.662Z,101301.66
2023-02-19T19:35:33.481Z,101311.56
2023-02-19T19:38:00.159Z,101316.63
2023-02-19T19:40:26.823Z,101323.94
2023-02-19T19:42:54.221Z,101322.59
2023-02-19T19:45:21.149Z,101316.75
2023-02-19T19:47:48.922Z,101339.19
2023-02-19T19:50:18.308Z,101339.81
2023-02-19T19:52:45.004Z,101337.53
2023-02-19T19:55:11.680Z,101341.38
2023-02-19T19:57:40.753Z,101339.84
2023-02-19T20:00:09.248Z,101326.28
2023-02-19T20:02:35.886Z,101317.25
2023-02-19T20:05:04.946Z,101322.06
2023-02-19T20:07:31.808Z,101308.09
2023-02-19T20:10:00.822Z,101301.72
2023-02-19T20:12:27.583Z,101304.72
2023-02-19T20:14:57.185Z,101295.44
2023-02-19T20:17:27.298Z,101298.72
2023-02-19T20:19:53.931Z,101295.34
2023-02-19T20:22:20.735Z,101289.59
2023-02-19T20:24:53.840Z,101280.91
2023-02-19T20:27:23.516Z,101286.97
2023-02-19T20:29:53.191Z,101286.69
2023-02-19T20:32:19.971Z,101279.13
2023-02-19T20:34:48.358Z,101268.91
2023-02-19T20:37:15.448Z,101272.16
2023-02-19T20:39:42.205Z,101262.38
2023-02-19T20:42:08.949Z,101262.09
2023-02-19T20:44:35.808Z,101268.31
2023-02-19T20:47:08.526Z,101268.47
2023-02-19T20:49:35.293Z,101258.78
2023-02-19T20:52:08.289Z,101254.22
2023-02-19T20:54:36.068Z,101265.97
2023-02-19T20:57:08.601Z,101263.97
2023-02-19T20:59:36.204Z,101264.09
2023-02-19T21:02:16.862Z,101258.75
2023-02-19T21:04:44.517Z,101267.69
2023-02-19T21:07:11.470Z,101275.00
2023-02-19T21:09:38.315Z,101278.59
2023-02-19T21:12:08.269Z,101273.72
2023-02-19T21:14:34.947Z,101274.38
2023-02-19T21:17:01.705Z,101272.06
2023-02-19T21:19:28.425Z,101273.50
2023-02-19T21:21:55.119Z,101274.53
2023-02-19T21:24:22.119Z,101259.91
2023-02-19T21:26:49.098Z,101261.34
2023-02-19T21:29:22.205Z,101264.03
2023-02-19T21:31:54.902Z,101262.97
2023-02-19T21:34:27.092Z,101247.75
2023-02-19T21:36:55.914Z,101246.53
2023-02-19T21:39:25.980Z,101245.50
2023-02-19T21:41:53.657Z,101239.03
2023-02-19T21:44:21.696Z,101223.91
2023-02-19T21:46:53.587Z,101231.34
2023-02-19T21:49:20.417Z,101231.25
2023-02-19T21:51:50.871Z,101224.19
2023-02-19T21:54:25.134Z,101227.72
2023-02-19T21:56:53.591Z,101232.13
2023-02-19T21:59:23.080Z,101228.78
2023-02-19T22:01:50.701Z,101226.19
2023-02-19T22:04:21.858Z,101217.25
2023-02-19T22:06:48.539Z,101210.09
2023-02-19T22:09:16.532Z,101204.78
2023-02-19T22:11:43.259Z,101202.19
2023-02-19T22:14:10.004Z,101193.34
2023-02-19T22:16:37.062Z,101192.22
2023-02-19T22:19:04.712Z,101189.34
2023-02-19T22:21:33.229Z,101180.41
2023-02-19T22:24:02.547Z,101185.47
2023-02-19T22:26:35.350Z,101179.84
2023-02-19T22:29:08.372Z,101187.84
2023-02-19T22:31:38.395Z,101175.44
2023-02-19T22:34:05.979Z,101173.38
2023-02-19T22:36:36.889Z,101162.59
2023-02-19T22:39:13.730Z,101156.41
2023-02-19T22:41:45.759Z,101164.31
2023-02-19T22:44:12.882Z,101170.22
2023-02-19T22:46:45.323Z,101168.03
2023-02-19T22:49:15.644Z,101172.22
2023-02-19T22:52:16.753Z,101170.31
2023-02-19T22:54:43.421Z,101168.22
2023-02-19T22:57:10.135Z,101151.66
2023-02-19T22:59:36.826Z,101153.63
2023-02-19T23:02:06.632Z,101162.50
2023-02-19T23:04:33.341Z,101163.13
2023-02-19T23:06:59.992Z,101155.25
2023-02-19T23:09:29.560Z,101145.44
2023-02-19T23:12:14.576Z,101142.25
2023-02-19T23:14:47.359Z,101142.25
2023-02-19T23:17:17.292Z,101135.31
2023-02-19T23:19:43.928Z,101135.97
2023-02-19T23:22:10.978Z,101121.50
2023-02-19T23:24:38.735Z,101120.53
2023-02-19T23:27:05.370Z,101108.31
2023-02-19T23:29:32.060Z,101097.78
2023-02-19T23:32:00.378Z,101112.59
2023-02-19T23:34:27.133Z,101094.13
2023-02-19T23:36:55.411Z,101085.28
2023-02-19T23:39:22.718Z,101093.91
2023-02-19T23:41:54.391Z,101086.88
2023-02-19T23:44:24.594Z,101080.69
2023-02-19T23:46:52.519Z,101067.75
2023-02-19T23:49:22.603Z,101068.59
2023-02-19T23:51:49.428Z,101067.06
2023-02-19T23:54:16.814Z,101059.28
2023-02-19T23:56:43.715Z,101033.56
2023-02-19T23:59:14.153Z,101017.66
